<?xml version="1.0" encoding="UTF-8" standalone="no" ?>
<gpx xmlns="http://www.topografix.com/GPX/1/1" xmlns:xsi="http://www.w3.org/2001/XMLSchema-instance" xsi:schemaLocation="http://www.topografix.com/GPX/1/1 http://www.topografix.com/GPX/1/1/gpx.xsd" version="1.1" creator="VisuGPX - https://www.visugpx.com">
  <metadata>
    <name>Tournai - Ere - Tournai</name>
    <desc><![CDATA[Route et sentier, Tournai - Ere - Tournai]]></desc>
  </metadata>
  <trk>
    <name><![CDATA[Morning Run]]></name>
    <trkseg>
      <trkpt lat="50.59932" lon="3.39253">
        <ele>48.6</ele>
        <time>2017-10-12T08:17:23Z</time>
      </trkpt>
      <trkpt lat="50.5993" lon="3.39224">
        <ele>48.7</ele>
        <time>2017-10-12T08:17:32Z</time>
      </trkpt>
      <trkpt lat="50.59926" lon="3.39194">
        <ele>47.9</ele>
        <time>2017-10-12T08:17:39Z</time>
      </trkpt>
      <trkpt lat="50.59924" lon="3.39166">
        <ele>46.9</ele>
        <time>2017-10-12T08:17:45Z</time>
      </trkpt>
      <trkpt lat="50.59923" lon="3.39149">
        <ele>46.1</ele>
        <time>2017-10-12T08:17:49Z</time>
      </trkpt>
      <trkpt lat="50.5992" lon="3.39132">
        <ele>46.1</ele>
        <time>2017-10-12T08:17:53Z</time>
      </trkpt>
      <trkpt lat="50.59916" lon="3.39103">
        <ele>46.7</ele>
        <time>2017-10-12T08:18:00Z</time>
      </trkpt>
      <trkpt lat="50.59914" lon="3.39074">
        <ele>47.1</ele>
        <time>2017-10-12T08:18:07Z</time>
      </trkpt>
      <trkpt lat="50.59913" lon="3.39062">
        <ele>47.2</ele>
        <time>2017-10-12T08:18:10Z</time>
      </trkpt>
      <trkpt lat="50.59911" lon="3.39033">
        <ele>47.6</ele>
        <time>2017-10-12T08:18:17Z</time>
      </trkpt>
      <trkpt lat="50.59908" lon="3.39003">
        <ele>47.9</ele>
        <time>2017-10-12T08:18:24Z</time>
      </trkpt>
      <trkpt lat="50.59904" lon="3.38975">
        <ele>48</ele>
        <time>2017-10-12T08:18:31Z</time>
      </trkpt>
      <trkpt lat="50.59902" lon="3.38946">
        <ele>48.3</ele>
        <time>2017-10-12T08:18:38Z</time>
      </trkpt>
      <trkpt lat="50.599" lon="3.38913">
        <ele>48.7</ele>
        <time>2017-10-12T08:18:46Z</time>
      </trkpt>
      <trkpt lat="50.599" lon="3.38883">
        <ele>48.9</ele>
        <time>2017-10-12T08:18:53Z</time>
      </trkpt>
      <trkpt lat="50.59898" lon="3.38854">
        <ele>49</ele>
        <time>2017-10-12T08:19:00Z</time>
      </trkpt>
      <trkpt lat="50.59896" lon="3.38825">
        <ele>49</ele>
        <time>2017-10-12T08:19:08Z</time>
      </trkpt>
      <trkpt lat="50.59894" lon="3.38795">
        <ele>49</ele>
        <time>2017-10-12T08:19:15Z</time>
      </trkpt>
      <trkpt lat="50.59893" lon="3.38767">
        <ele>48.8</ele>
        <time>2017-10-12T08:19:22Z</time>
      </trkpt>
      <trkpt lat="50.59889" lon="3.38737">
        <ele>48.7</ele>
        <time>2017-10-12T08:19:29Z</time>
      </trkpt>
      <trkpt lat="50.59889" lon="3.38705">
        <ele>48.6</ele>
        <time>2017-10-12T08:19:37Z</time>
      </trkpt>
      <trkpt lat="50.59889" lon="3.38677">
        <ele>48.6</ele>
        <time>2017-10-12T08:19:44Z</time>
      </trkpt>
      <trkpt lat="50.59888" lon="3.38664">
        <ele>48.5</ele>
        <time>2017-10-12T08:19:47Z</time>
      </trkpt>
      <trkpt lat="50.59894" lon="3.3863">
        <ele>48.4</ele>
        <time>2017-10-12T08:19:55Z</time>
      </trkpt>
      <trkpt lat="50.59886" lon="3.386">
        <ele>48.3</ele>
        <time>2017-10-12T08:20:02Z</time>
      </trkpt>
      <trkpt lat="50.59884" lon="3.38584">
        <ele>48.2</ele>
        <time>2017-10-12T08:20:06Z</time>
      </trkpt>
      <trkpt lat="50.59878" lon="3.38567">
        <ele>48.1</ele>
        <time>2017-10-12T08:20:11Z</time>
      </trkpt>
      <trkpt lat="50.59885" lon="3.38545">
        <ele>47.8</ele>
        <time>2017-10-12T08:20:20Z</time>
      </trkpt>
      <trkpt lat="50.59881" lon="3.3852">
        <ele>47.5</ele>
        <time>2017-10-12T08:20:26Z</time>
      </trkpt>
      <trkpt lat="50.59881" lon="3.38491">
        <ele>47.5</ele>
        <time>2017-10-12T08:20:33Z</time>
      </trkpt>
      <trkpt lat="50.5988" lon="3.38467">
        <ele>47.5</ele>
        <time>2017-10-12T08:20:40Z</time>
      </trkpt>
      <trkpt lat="50.59887" lon="3.38434">
        <ele>47.6</ele>
        <time>2017-10-12T08:20:48Z</time>
      </trkpt>
      <trkpt lat="50.59887" lon="3.38403">
        <ele>47.7</ele>
        <time>2017-10-12T08:20:56Z</time>
      </trkpt>
      <trkpt lat="50.59882" lon="3.38376">
        <ele>47.8</ele>
        <time>2017-10-12T08:21:04Z</time>
      </trkpt>
      <trkpt lat="50.59881" lon="3.38372">
        <ele>47.9</ele>
        <time>2017-10-12T08:21:05Z</time>
      </trkpt>
      <trkpt lat="50.59877" lon="3.38349">
        <ele>48</ele>
        <time>2017-10-12T08:21:11Z</time>
      </trkpt>
      <trkpt lat="50.59872" lon="3.38321">
        <ele>48.1</ele>
        <time>2017-10-12T08:21:19Z</time>
      </trkpt>
      <trkpt lat="50.59864" lon="3.38295">
        <ele>48.4</ele>
        <time>2017-10-12T08:21:25Z</time>
      </trkpt>
      <trkpt lat="50.59842" lon="3.38273">
        <ele>48.6</ele>
        <time>2017-10-12T08:21:31Z</time>
      </trkpt>
      <trkpt lat="50.59831" lon="3.38245">
        <ele>48.9</ele>
        <time>2017-10-12T08:21:38Z</time>
      </trkpt>
      <trkpt lat="50.59834" lon="3.38216">
        <ele>48.9</ele>
        <time>2017-10-12T08:21:45Z</time>
      </trkpt>
      <trkpt lat="50.59845" lon="3.3819">
        <ele>49.4</ele>
        <time>2017-10-12T08:21:53Z</time>
      </trkpt>
      <trkpt lat="50.59853" lon="3.38161">
        <ele>50.2</ele>
        <time>2017-10-12T08:22:01Z</time>
      </trkpt>
      <trkpt lat="50.59861" lon="3.38145">
        <ele>49.1</ele>
        <time>2017-10-12T08:22:07Z</time>
      </trkpt>
      <trkpt lat="50.59849" lon="3.38139">
        <ele>49.3</ele>
        <time>2017-10-12T08:22:14Z</time>
      </trkpt>
      <trkpt lat="50.59843" lon="3.38137">
        <ele>49.4</ele>
        <time>2017-10-12T08:22:17Z</time>
      </trkpt>
      <trkpt lat="50.59828" lon="3.38127">
        <ele>49.8</ele>
        <time>2017-10-12T08:22:23Z</time>
      </trkpt>
      <trkpt lat="50.59809" lon="3.38113">
        <ele>50.9</ele>
        <time>2017-10-12T08:22:30Z</time>
      </trkpt>
      <trkpt lat="50.59792" lon="3.38098">
        <ele>51.4</ele>
        <time>2017-10-12T08:22:37Z</time>
      </trkpt>
      <trkpt lat="50.59774" lon="3.38081">
        <ele>51.7</ele>
        <time>2017-10-12T08:22:44Z</time>
      </trkpt>
      <trkpt lat="50.59757" lon="3.38071">
        <ele>51.8</ele>
        <time>2017-10-12T08:22:51Z</time>
      </trkpt>
      <trkpt lat="50.59753" lon="3.38063">
        <ele>51.9</ele>
        <time>2017-10-12T08:22:54Z</time>
      </trkpt>
      <trkpt lat="50.59746" lon="3.38052">
        <ele>52</ele>
        <time>2017-10-12T08:22:58Z</time>
      </trkpt>
      <trkpt lat="50.59729" lon="3.38035">
        <ele>52</ele>
        <time>2017-10-12T08:23:05Z</time>
      </trkpt>
      <trkpt lat="50.59718" lon="3.38023">
        <ele>52</ele>
        <time>2017-10-12T08:23:10Z</time>
      </trkpt>
      <trkpt lat="50.59729" lon="3.38002">
        <ele>51.9</ele>
        <time>2017-10-12T08:23:17Z</time>
      </trkpt>
      <trkpt lat="50.59744" lon="3.37981">
        <ele>51.8</ele>
        <time>2017-10-12T08:23:24Z</time>
      </trkpt>
      <trkpt lat="50.5976" lon="3.3796">
        <ele>51.6</ele>
        <time>2017-10-12T08:23:31Z</time>
      </trkpt>
      <trkpt lat="50.59775" lon="3.37939">
        <ele>51.5</ele>
        <time>2017-10-12T08:23:38Z</time>
      </trkpt>
      <trkpt lat="50.5979" lon="3.37918">
        <ele>50.7</ele>
        <time>2017-10-12T08:23:45Z</time>
      </trkpt>
      <trkpt lat="50.59805" lon="3.37898">
        <ele>49.5</ele>
        <time>2017-10-12T08:23:52Z</time>
      </trkpt>
      <trkpt lat="50.5982" lon="3.37877">
        <ele>48.8</ele>
        <time>2017-10-12T08:23:59Z</time>
      </trkpt>
      <trkpt lat="50.59836" lon="3.37855">
        <ele>48.8</ele>
        <time>2017-10-12T08:24:06Z</time>
      </trkpt>
      <trkpt lat="50.59853" lon="3.37839">
        <ele>48.7</ele>
        <time>2017-10-12T08:24:13Z</time>
      </trkpt>
      <trkpt lat="50.5987" lon="3.37825">
        <ele>48.7</ele>
        <time>2017-10-12T08:24:20Z</time>
      </trkpt>
      <trkpt lat="50.59886" lon="3.37812">
        <ele>48.7</ele>
        <time>2017-10-12T08:24:27Z</time>
      </trkpt>
      <trkpt lat="50.59903" lon="3.37799">
        <ele>48.8</ele>
        <time>2017-10-12T08:24:34Z</time>
      </trkpt>
      <trkpt lat="50.59922" lon="3.37786">
        <ele>48.8</ele>
        <time>2017-10-12T08:24:41Z</time>
      </trkpt>
      <trkpt lat="50.59939" lon="3.37773">
        <ele>48.9</ele>
        <time>2017-10-12T08:24:48Z</time>
      </trkpt>
      <trkpt lat="50.59951" lon="3.3777">
        <ele>49</ele>
        <time>2017-10-12T08:24:53Z</time>
      </trkpt>
      <trkpt lat="50.59961" lon="3.37766">
        <ele>48.9</ele>
        <time>2017-10-12T08:24:58Z</time>
      </trkpt>
      <trkpt lat="50.59966" lon="3.37751">
        <ele>48.7</ele>
        <time>2017-10-12T08:25:03Z</time>
      </trkpt>
      <trkpt lat="50.59979" lon="3.37732">
        <ele>48.4</ele>
        <time>2017-10-12T08:25:10Z</time>
      </trkpt>
      <trkpt lat="50.59992" lon="3.37709">
        <ele>48.2</ele>
        <time>2017-10-12T08:25:17Z</time>
      </trkpt>
      <trkpt lat="50.60004" lon="3.37686">
        <ele>48</ele>
        <time>2017-10-12T08:25:24Z</time>
      </trkpt>
      <trkpt lat="50.6002" lon="3.37667">
        <ele>47.8</ele>
        <time>2017-10-12T08:25:32Z</time>
      </trkpt>
      <trkpt lat="50.60035" lon="3.37645">
        <ele>47.5</ele>
        <time>2017-10-12T08:25:39Z</time>
      </trkpt>
      <trkpt lat="50.60049" lon="3.37622">
        <ele>47.3</ele>
        <time>2017-10-12T08:25:46Z</time>
      </trkpt>
      <trkpt lat="50.60062" lon="3.37599">
        <ele>47.1</ele>
        <time>2017-10-12T08:25:53Z</time>
      </trkpt>
      <trkpt lat="50.60076" lon="3.37581">
        <ele>46.5</ele>
        <time>2017-10-12T08:26:00Z</time>
      </trkpt>
      <trkpt lat="50.60093" lon="3.37563">
        <ele>45</ele>
        <time>2017-10-12T08:26:08Z</time>
      </trkpt>
      <trkpt lat="50.60103" lon="3.37557">
        <ele>45</ele>
        <time>2017-10-12T08:26:13Z</time>
      </trkpt>
      <trkpt lat="50.60109" lon="3.37532">
        <ele>44.9</ele>
        <time>2017-10-12T08:26:21Z</time>
      </trkpt>
      <trkpt lat="50.60124" lon="3.37512">
        <ele>44.8</ele>
        <time>2017-10-12T08:26:28Z</time>
      </trkpt>
      <trkpt lat="50.60138" lon="3.3749">
        <ele>44.6</ele>
        <time>2017-10-12T08:26:35Z</time>
      </trkpt>
      <trkpt lat="50.60153" lon="3.3747">
        <ele>44.4</ele>
        <time>2017-10-12T08:26:42Z</time>
      </trkpt>
      <trkpt lat="50.60168" lon="3.37449">
        <ele>44.3</ele>
        <time>2017-10-12T08:26:49Z</time>
      </trkpt>
      <trkpt lat="50.60181" lon="3.37427">
        <ele>44.1</ele>
        <time>2017-10-12T08:26:56Z</time>
      </trkpt>
      <trkpt lat="50.60196" lon="3.37408">
        <ele>43.9</ele>
        <time>2017-10-12T08:27:02Z</time>
      </trkpt>
      <trkpt lat="50.6021" lon="3.37388">
        <ele>43.7</ele>
        <time>2017-10-12T08:27:09Z</time>
      </trkpt>
      <trkpt lat="50.60224" lon="3.37365">
        <ele>43.4</ele>
        <time>2017-10-12T08:27:16Z</time>
      </trkpt>
      <trkpt lat="50.60238" lon="3.37342">
        <ele>42.7</ele>
        <time>2017-10-12T08:27:23Z</time>
      </trkpt>
      <trkpt lat="50.60241" lon="3.3733">
        <ele>42</ele>
        <time>2017-10-12T08:27:26Z</time>
      </trkpt>
      <trkpt lat="50.6024" lon="3.37298">
        <ele>40.5</ele>
        <time>2017-10-12T08:27:34Z</time>
      </trkpt>
      <trkpt lat="50.60233" lon="3.37268">
        <ele>40.6</ele>
        <time>2017-10-12T08:27:41Z</time>
      </trkpt>
      <trkpt lat="50.60227" lon="3.37238">
        <ele>40.8</ele>
        <time>2017-10-12T08:27:48Z</time>
      </trkpt>
      <trkpt lat="50.60224" lon="3.37209">
        <ele>39.7</ele>
        <time>2017-10-12T08:27:54Z</time>
      </trkpt>
      <trkpt lat="50.60219" lon="3.3718">
        <ele>37.5</ele>
        <time>2017-10-12T08:28:01Z</time>
      </trkpt>
      <trkpt lat="50.60215" lon="3.3715">
        <ele>36</ele>
        <time>2017-10-12T08:28:08Z</time>
      </trkpt>
      <trkpt lat="50.60213" lon="3.37119">
        <ele>35.8</ele>
        <time>2017-10-12T08:28:14Z</time>
      </trkpt>
      <trkpt lat="50.60212" lon="3.37089">
        <ele>36.8</ele>
        <time>2017-10-12T08:28:20Z</time>
      </trkpt>
      <trkpt lat="50.60213" lon="3.37054">
        <ele>36.8</ele>
        <time>2017-10-12T08:28:27Z</time>
      </trkpt>
      <trkpt lat="50.60214" lon="3.37021">
        <ele>37.8</ele>
        <time>2017-10-12T08:28:34Z</time>
      </trkpt>
      <trkpt lat="50.60214" lon="3.37015">
        <ele>37.8</ele>
        <time>2017-10-12T08:28:35Z</time>
      </trkpt>
      <trkpt lat="50.60214" lon="3.36983">
        <ele>38.4</ele>
        <time>2017-10-12T08:28:42Z</time>
      </trkpt>
      <trkpt lat="50.60216" lon="3.36955">
        <ele>39</ele>
        <time>2017-10-12T08:28:48Z</time>
      </trkpt>
      <trkpt lat="50.60208" lon="3.36928">
        <ele>37.8</ele>
        <time>2017-10-12T08:28:55Z</time>
      </trkpt>
      <trkpt lat="50.60199" lon="3.36902">
        <ele>37</ele>
        <time>2017-10-12T08:29:02Z</time>
      </trkpt>
      <trkpt lat="50.6019" lon="3.36873">
        <ele>36.9</ele>
        <time>2017-10-12T08:29:10Z</time>
      </trkpt>
      <trkpt lat="50.60182" lon="3.36845">
        <ele>37.2</ele>
        <time>2017-10-12T08:29:17Z</time>
      </trkpt>
      <trkpt lat="50.60173" lon="3.36819">
        <ele>38.1</ele>
        <time>2017-10-12T08:29:24Z</time>
      </trkpt>
      <trkpt lat="50.60164" lon="3.36793">
        <ele>38.9</ele>
        <time>2017-10-12T08:29:31Z</time>
      </trkpt>
      <trkpt lat="50.60156" lon="3.36766">
        <ele>39.8</ele>
        <time>2017-10-12T08:29:38Z</time>
      </trkpt>
      <trkpt lat="50.6015" lon="3.36737">
        <ele>40.6</ele>
        <time>2017-10-12T08:29:45Z</time>
      </trkpt>
      <trkpt lat="50.60146" lon="3.36709">
        <ele>41.3</ele>
        <time>2017-10-12T08:29:52Z</time>
      </trkpt>
      <trkpt lat="50.6014" lon="3.36681">
        <ele>41.9</ele>
        <time>2017-10-12T08:29:59Z</time>
      </trkpt>
      <trkpt lat="50.60135" lon="3.36652">
        <ele>42.1</ele>
        <time>2017-10-12T08:30:06Z</time>
      </trkpt>
      <trkpt lat="50.60129" lon="3.36624">
        <ele>42.2</ele>
        <time>2017-10-12T08:30:13Z</time>
      </trkpt>
      <trkpt lat="50.60126" lon="3.36597">
        <ele>42.3</ele>
        <time>2017-10-12T08:30:20Z</time>
      </trkpt>
      <trkpt lat="50.6012" lon="3.36567">
        <ele>42.3</ele>
        <time>2017-10-12T08:30:27Z</time>
      </trkpt>
      <trkpt lat="50.60114" lon="3.36538">
        <ele>43.1</ele>
        <time>2017-10-12T08:30:34Z</time>
      </trkpt>
      <trkpt lat="50.60109" lon="3.36509">
        <ele>43.2</ele>
        <time>2017-10-12T08:30:41Z</time>
      </trkpt>
      <trkpt lat="50.60103" lon="3.36481">
        <ele>44.1</ele>
        <time>2017-10-12T08:30:48Z</time>
      </trkpt>
      <trkpt lat="50.60097" lon="3.36451">
        <ele>45</ele>
        <time>2017-10-12T08:30:55Z</time>
      </trkpt>
      <trkpt lat="50.60091" lon="3.36423">
        <ele>46.6</ele>
        <time>2017-10-12T08:31:02Z</time>
      </trkpt>
      <trkpt lat="50.60082" lon="3.36394">
        <ele>47.4</ele>
        <time>2017-10-12T08:31:09Z</time>
      </trkpt>
      <trkpt lat="50.60075" lon="3.36367">
        <ele>48.5</ele>
        <time>2017-10-12T08:31:15Z</time>
      </trkpt>
      <trkpt lat="50.60068" lon="3.36338">
        <ele>48.6</ele>
        <time>2017-10-12T08:31:22Z</time>
      </trkpt>
      <trkpt lat="50.60062" lon="3.36311">
        <ele>48.7</ele>
        <time>2017-10-12T08:31:29Z</time>
      </trkpt>
      <trkpt lat="50.60057" lon="3.36281">
        <ele>48.6</ele>
        <time>2017-10-12T08:31:36Z</time>
      </trkpt>
      <trkpt lat="50.60051" lon="3.36251">
        <ele>47.5</ele>
        <time>2017-10-12T08:31:43Z</time>
      </trkpt>
      <trkpt lat="50.60046" lon="3.36222">
        <ele>46.4</ele>
        <time>2017-10-12T08:31:50Z</time>
      </trkpt>
      <trkpt lat="50.60042" lon="3.36191">
        <ele>47.5</ele>
        <time>2017-10-12T08:31:58Z</time>
      </trkpt>
      <trkpt lat="50.60037" lon="3.36162">
        <ele>48.5</ele>
        <time>2017-10-12T08:32:05Z</time>
      </trkpt>
      <trkpt lat="50.60034" lon="3.36134">
        <ele>49.5</ele>
        <time>2017-10-12T08:32:12Z</time>
      </trkpt>
      <trkpt lat="50.60029" lon="3.36102">
        <ele>49.2</ele>
        <time>2017-10-12T08:32:19Z</time>
      </trkpt>
      <trkpt lat="50.60025" lon="3.36073">
        <ele>48.7</ele>
        <time>2017-10-12T08:32:25Z</time>
      </trkpt>
      <trkpt lat="50.60011" lon="3.36058">
        <ele>49.2</ele>
        <time>2017-10-12T08:32:31Z</time>
      </trkpt>
      <trkpt lat="50.59993" lon="3.36062">
        <ele>49.5</ele>
        <time>2017-10-12T08:32:38Z</time>
      </trkpt>
      <trkpt lat="50.59974" lon="3.36065">
        <ele>49.6</ele>
        <time>2017-10-12T08:32:45Z</time>
      </trkpt>
      <trkpt lat="50.59954" lon="3.36064">
        <ele>49.7</ele>
        <time>2017-10-12T08:32:52Z</time>
      </trkpt>
      <trkpt lat="50.59936" lon="3.36056">
        <ele>49.9</ele>
        <time>2017-10-12T08:32:59Z</time>
      </trkpt>
      <trkpt lat="50.5992" lon="3.3604">
        <ele>50</ele>
        <time>2017-10-12T08:33:06Z</time>
      </trkpt>
      <trkpt lat="50.59902" lon="3.36025">
        <ele>50.1</ele>
        <time>2017-10-12T08:33:13Z</time>
      </trkpt>
      <trkpt lat="50.59884" lon="3.36013">
        <ele>50.2</ele>
        <time>2017-10-12T08:33:20Z</time>
      </trkpt>
      <trkpt lat="50.59864" lon="3.36006">
        <ele>50.3</ele>
        <time>2017-10-12T08:33:27Z</time>
      </trkpt>
      <trkpt lat="50.59846" lon="3.36007">
        <ele>50.4</ele>
        <time>2017-10-12T08:33:34Z</time>
      </trkpt>
      <trkpt lat="50.59826" lon="3.36014">
        <ele>50.4</ele>
        <time>2017-10-12T08:33:41Z</time>
      </trkpt>
      <trkpt lat="50.5981" lon="3.36028">
        <ele>50.3</ele>
        <time>2017-10-12T08:33:47Z</time>
      </trkpt>
      <trkpt lat="50.59795" lon="3.36046">
        <ele>49.9</ele>
        <time>2017-10-12T08:33:53Z</time>
      </trkpt>
      <trkpt lat="50.59781" lon="3.36065">
        <ele>49.3</ele>
        <time>2017-10-12T08:33:59Z</time>
      </trkpt>
      <trkpt lat="50.59778" lon="3.36067">
        <ele>49.3</ele>
        <time>2017-10-12T08:34:00Z</time>
      </trkpt>
      <trkpt lat="50.59759" lon="3.36081">
        <ele>49.2</ele>
        <time>2017-10-12T08:34:07Z</time>
      </trkpt>
      <trkpt lat="50.59738" lon="3.36084">
        <ele>49.2</ele>
        <time>2017-10-12T08:34:14Z</time>
      </trkpt>
      <trkpt lat="50.59718" lon="3.36084">
        <ele>49.3</ele>
        <time>2017-10-12T08:34:21Z</time>
      </trkpt>
      <trkpt lat="50.59697" lon="3.3608">
        <ele>49.4</ele>
        <time>2017-10-12T08:34:28Z</time>
      </trkpt>
      <trkpt lat="50.59676" lon="3.3608">
        <ele>49.5</ele>
        <time>2017-10-12T08:34:35Z</time>
      </trkpt>
      <trkpt lat="50.59656" lon="3.36078">
        <ele>49.7</ele>
        <time>2017-10-12T08:34:42Z</time>
      </trkpt>
      <trkpt lat="50.59638" lon="3.36071">
        <ele>50</ele>
        <time>2017-10-12T08:34:50Z</time>
      </trkpt>
      <trkpt lat="50.59619" lon="3.36069">
        <ele>50.8</ele>
        <time>2017-10-12T08:34:57Z</time>
      </trkpt>
      <trkpt lat="50.596" lon="3.36068">
        <ele>51.4</ele>
        <time>2017-10-12T08:35:04Z</time>
      </trkpt>
      <trkpt lat="50.5958" lon="3.36064">
        <ele>51.8</ele>
        <time>2017-10-12T08:35:12Z</time>
      </trkpt>
      <trkpt lat="50.59561" lon="3.36061">
        <ele>52.1</ele>
        <time>2017-10-12T08:35:19Z</time>
      </trkpt>
      <trkpt lat="50.59542" lon="3.36058">
        <ele>52.4</ele>
        <time>2017-10-12T08:35:26Z</time>
      </trkpt>
      <trkpt lat="50.59522" lon="3.36055">
        <ele>52.6</ele>
        <time>2017-10-12T08:35:33Z</time>
      </trkpt>
      <trkpt lat="50.59503" lon="3.36051">
        <ele>53</ele>
        <time>2017-10-12T08:35:40Z</time>
      </trkpt>
      <trkpt lat="50.59485" lon="3.36047">
        <ele>53.8</ele>
        <time>2017-10-12T08:35:47Z</time>
      </trkpt>
      <trkpt lat="50.59467" lon="3.36043">
        <ele>55.5</ele>
        <time>2017-10-12T08:35:54Z</time>
      </trkpt>
      <trkpt lat="50.59448" lon="3.36037">
        <ele>57.3</ele>
        <time>2017-10-12T08:36:01Z</time>
      </trkpt>
      <trkpt lat="50.59429" lon="3.3603">
        <ele>59.1</ele>
        <time>2017-10-12T08:36:08Z</time>
      </trkpt>
      <trkpt lat="50.59408" lon="3.36028">
        <ele>59.8</ele>
        <time>2017-10-12T08:36:16Z</time>
      </trkpt>
      <trkpt lat="50.59389" lon="3.36026">
        <ele>59.4</ele>
        <time>2017-10-12T08:36:23Z</time>
      </trkpt>
      <trkpt lat="50.59371" lon="3.36024">
        <ele>59.1</ele>
        <time>2017-10-12T08:36:30Z</time>
      </trkpt>
      <trkpt lat="50.59352" lon="3.36021">
        <ele>58.9</ele>
        <time>2017-10-12T08:36:37Z</time>
      </trkpt>
      <trkpt lat="50.59332" lon="3.36021">
        <ele>58.8</ele>
        <time>2017-10-12T08:36:45Z</time>
      </trkpt>
      <trkpt lat="50.59313" lon="3.36022">
        <ele>58.7</ele>
        <time>2017-10-12T08:36:52Z</time>
      </trkpt>
      <trkpt lat="50.59296" lon="3.36022">
        <ele>58.7</ele>
        <time>2017-10-12T08:36:59Z</time>
      </trkpt>
      <trkpt lat="50.59277" lon="3.36026">
        <ele>58.7</ele>
        <time>2017-10-12T08:37:06Z</time>
      </trkpt>
      <trkpt lat="50.59259" lon="3.36031">
        <ele>58.5</ele>
        <time>2017-10-12T08:37:12Z</time>
      </trkpt>
      <trkpt lat="50.59239" lon="3.36038">
        <ele>58.3</ele>
        <time>2017-10-12T08:37:19Z</time>
      </trkpt>
      <trkpt lat="50.59235" lon="3.36043">
        <ele>58.2</ele>
        <time>2017-10-12T08:37:21Z</time>
      </trkpt>
      <trkpt lat="50.59232" lon="3.36047">
        <ele>58.1</ele>
        <time>2017-10-12T08:37:23Z</time>
      </trkpt>
      <trkpt lat="50.5923" lon="3.36048">
        <ele>58.1</ele>
        <time>2017-10-12T08:37:32Z</time>
      </trkpt>
      <trkpt lat="50.59211" lon="3.36051">
        <ele>57.8</ele>
        <time>2017-10-12T08:37:39Z</time>
      </trkpt>
      <trkpt lat="50.59191" lon="3.36058">
        <ele>57.1</ele>
        <time>2017-10-12T08:37:46Z</time>
      </trkpt>
      <trkpt lat="50.59174" lon="3.36066">
        <ele>56.6</ele>
        <time>2017-10-12T08:37:52Z</time>
      </trkpt>
      <trkpt lat="50.59157" lon="3.36072">
        <ele>56.3</ele>
        <time>2017-10-12T08:37:58Z</time>
      </trkpt>
      <trkpt lat="50.59138" lon="3.36082">
        <ele>55.9</ele>
        <time>2017-10-12T08:38:04Z</time>
      </trkpt>
      <trkpt lat="50.5912" lon="3.3609">
        <ele>55.5</ele>
        <time>2017-10-12T08:38:10Z</time>
      </trkpt>
      <trkpt lat="50.59101" lon="3.36097">
        <ele>54.6</ele>
        <time>2017-10-12T08:38:16Z</time>
      </trkpt>
      <trkpt lat="50.59081" lon="3.36103">
        <ele>54.2</ele>
        <time>2017-10-12T08:38:22Z</time>
      </trkpt>
      <trkpt lat="50.59063" lon="3.36107">
        <ele>53.7</ele>
        <time>2017-10-12T08:38:28Z</time>
      </trkpt>
      <trkpt lat="50.59041" lon="3.36113">
        <ele>52.4</ele>
        <time>2017-10-12T08:38:35Z</time>
      </trkpt>
      <trkpt lat="50.59022" lon="3.36123">
        <ele>51.4</ele>
        <time>2017-10-12T08:38:41Z</time>
      </trkpt>
      <trkpt lat="50.59002" lon="3.36126">
        <ele>50.2</ele>
        <time>2017-10-12T08:38:48Z</time>
      </trkpt>
      <trkpt lat="50.58983" lon="3.3613">
        <ele>49.7</ele>
        <time>2017-10-12T08:38:54Z</time>
      </trkpt>
      <trkpt lat="50.58964" lon="3.36135">
        <ele>48.9</ele>
        <time>2017-10-12T08:39:00Z</time>
      </trkpt>
      <trkpt lat="50.58945" lon="3.3614">
        <ele>48.5</ele>
        <time>2017-10-12T08:39:06Z</time>
      </trkpt>
      <trkpt lat="50.58926" lon="3.36146">
        <ele>48.2</ele>
        <time>2017-10-12T08:39:12Z</time>
      </trkpt>
      <trkpt lat="50.58908" lon="3.36151">
        <ele>48.1</ele>
        <time>2017-10-12T08:39:18Z</time>
      </trkpt>
      <trkpt lat="50.5889" lon="3.36158">
        <ele>48</ele>
        <time>2017-10-12T08:39:24Z</time>
      </trkpt>
      <trkpt lat="50.58873" lon="3.36167">
        <ele>47.8</ele>
        <time>2017-10-12T08:39:30Z</time>
      </trkpt>
      <trkpt lat="50.5885" lon="3.36176">
        <ele>47.6</ele>
        <time>2017-10-12T08:39:37Z</time>
      </trkpt>
      <trkpt lat="50.58832" lon="3.36185">
        <ele>46.9</ele>
        <time>2017-10-12T08:39:43Z</time>
      </trkpt>
      <trkpt lat="50.58814" lon="3.362">
        <ele>46.3</ele>
        <time>2017-10-12T08:39:50Z</time>
      </trkpt>
      <trkpt lat="50.58796" lon="3.36217">
        <ele>46</ele>
        <time>2017-10-12T08:39:57Z</time>
      </trkpt>
      <trkpt lat="50.5878" lon="3.36237">
        <ele>45.9</ele>
        <time>2017-10-12T08:40:04Z</time>
      </trkpt>
      <trkpt lat="50.58765" lon="3.36261">
        <ele>45.8</ele>
        <time>2017-10-12T08:40:11Z</time>
      </trkpt>
      <trkpt lat="50.58753" lon="3.36281">
        <ele>45.8</ele>
        <time>2017-10-12T08:40:17Z</time>
      </trkpt>
      <trkpt lat="50.58739" lon="3.36304">
        <ele>45.7</ele>
        <time>2017-10-12T08:40:24Z</time>
      </trkpt>
      <trkpt lat="50.58724" lon="3.36326">
        <ele>45.6</ele>
        <time>2017-10-12T08:40:31Z</time>
      </trkpt>
      <trkpt lat="50.58707" lon="3.36342">
        <ele>45.6</ele>
        <time>2017-10-12T08:40:38Z</time>
      </trkpt>
      <trkpt lat="50.58688" lon="3.36355">
        <ele>45.5</ele>
        <time>2017-10-12T08:40:45Z</time>
      </trkpt>
      <trkpt lat="50.58671" lon="3.36369">
        <ele>45.5</ele>
        <time>2017-10-12T08:40:51Z</time>
      </trkpt>
      <trkpt lat="50.58653" lon="3.36383">
        <ele>45.4</ele>
        <time>2017-10-12T08:40:58Z</time>
      </trkpt>
      <trkpt lat="50.58637" lon="3.36396">
        <ele>45.3</ele>
        <time>2017-10-12T08:41:04Z</time>
      </trkpt>
      <trkpt lat="50.5862" lon="3.36409">
        <ele>45.3</ele>
        <time>2017-10-12T08:41:10Z</time>
      </trkpt>
      <trkpt lat="50.58604" lon="3.36421">
        <ele>45.2</ele>
        <time>2017-10-12T08:41:16Z</time>
      </trkpt>
      <trkpt lat="50.58586" lon="3.36434">
        <ele>45.2</ele>
        <time>2017-10-12T08:41:22Z</time>
      </trkpt>
      <trkpt lat="50.58567" lon="3.36442">
        <ele>45.1</ele>
        <time>2017-10-12T08:41:29Z</time>
      </trkpt>
      <trkpt lat="50.58549" lon="3.36457">
        <ele>45</ele>
        <time>2017-10-12T08:41:36Z</time>
      </trkpt>
      <trkpt lat="50.58532" lon="3.36459">
        <ele>44.9</ele>
        <time>2017-10-12T08:41:42Z</time>
      </trkpt>
      <trkpt lat="50.58516" lon="3.36446">
        <ele>44.6</ele>
        <time>2017-10-12T08:41:48Z</time>
      </trkpt>
      <trkpt lat="50.585" lon="3.36432">
        <ele>44.3</ele>
        <time>2017-10-12T08:41:54Z</time>
      </trkpt>
      <trkpt lat="50.58483" lon="3.36412">
        <ele>44.1</ele>
        <time>2017-10-12T08:42:01Z</time>
      </trkpt>
      <trkpt lat="50.58469" lon="3.36394">
        <ele>44.8</ele>
        <time>2017-10-12T08:42:07Z</time>
      </trkpt>
      <trkpt lat="50.58456" lon="3.36373">
        <ele>45</ele>
        <time>2017-10-12T08:42:13Z</time>
      </trkpt>
      <trkpt lat="50.58441" lon="3.36351">
        <ele>45.2</ele>
        <time>2017-10-12T08:42:20Z</time>
      </trkpt>
      <trkpt lat="50.58425" lon="3.36332">
        <ele>45.3</ele>
        <time>2017-10-12T08:42:27Z</time>
      </trkpt>
      <trkpt lat="50.58409" lon="3.36314">
        <ele>45.5</ele>
        <time>2017-10-12T08:42:34Z</time>
      </trkpt>
      <trkpt lat="50.58394" lon="3.36293">
        <ele>45.8</ele>
        <time>2017-10-12T08:42:41Z</time>
      </trkpt>
      <trkpt lat="50.5838" lon="3.36273">
        <ele>46.5</ele>
        <time>2017-10-12T08:42:48Z</time>
      </trkpt>
      <trkpt lat="50.58365" lon="3.36248">
        <ele>46.9</ele>
        <time>2017-10-12T08:42:55Z</time>
      </trkpt>
      <trkpt lat="50.58351" lon="3.36227">
        <ele>47</ele>
        <time>2017-10-12T08:43:02Z</time>
      </trkpt>
      <trkpt lat="50.58337" lon="3.36208">
        <ele>46.8</ele>
        <time>2017-10-12T08:43:09Z</time>
      </trkpt>
      <trkpt lat="50.58322" lon="3.36189">
        <ele>46.5</ele>
        <time>2017-10-12T08:43:16Z</time>
      </trkpt>
      <trkpt lat="50.58305" lon="3.36171">
        <ele>46.3</ele>
        <time>2017-10-12T08:43:23Z</time>
      </trkpt>
      <trkpt lat="50.58287" lon="3.36158">
        <ele>46</ele>
        <time>2017-10-12T08:43:30Z</time>
      </trkpt>
      <trkpt lat="50.58268" lon="3.36148">
        <ele>45.8</ele>
        <time>2017-10-12T08:43:37Z</time>
      </trkpt>
      <trkpt lat="50.58249" lon="3.36144">
        <ele>45.9</ele>
        <time>2017-10-12T08:43:44Z</time>
      </trkpt>
      <trkpt lat="50.5823" lon="3.3615">
        <ele>46</ele>
        <time>2017-10-12T08:43:51Z</time>
      </trkpt>
      <trkpt lat="50.58213" lon="3.36169">
        <ele>45.9</ele>
        <time>2017-10-12T08:43:58Z</time>
      </trkpt>
      <trkpt lat="50.58197" lon="3.36187">
        <ele>45.4</ele>
        <time>2017-10-12T08:44:04Z</time>
      </trkpt>
      <trkpt lat="50.58179" lon="3.36208">
        <ele>44.4</ele>
        <time>2017-10-12T08:44:11Z</time>
      </trkpt>
      <trkpt lat="50.58163" lon="3.36225">
        <ele>43.6</ele>
        <time>2017-10-12T08:44:17Z</time>
      </trkpt>
      <trkpt lat="50.58144" lon="3.36233">
        <ele>42.8</ele>
        <time>2017-10-12T08:44:23Z</time>
      </trkpt>
      <trkpt lat="50.58127" lon="3.36236">
        <ele>42.3</ele>
        <time>2017-10-12T08:44:28Z</time>
      </trkpt>
      <trkpt lat="50.58109" lon="3.3624">
        <ele>41.4</ele>
        <time>2017-10-12T08:44:34Z</time>
      </trkpt>
      <trkpt lat="50.58089" lon="3.36245">
        <ele>41</ele>
        <time>2017-10-12T08:44:40Z</time>
      </trkpt>
      <trkpt lat="50.5807" lon="3.36245">
        <ele>40.6</ele>
        <time>2017-10-12T08:44:46Z</time>
      </trkpt>
      <trkpt lat="50.58051" lon="3.36239">
        <ele>39.7</ele>
        <time>2017-10-12T08:44:52Z</time>
      </trkpt>
      <trkpt lat="50.58031" lon="3.3623">
        <ele>39.2</ele>
        <time>2017-10-12T08:44:59Z</time>
      </trkpt>
      <trkpt lat="50.58019" lon="3.36235">
        <ele>39.1</ele>
        <time>2017-10-12T08:45:04Z</time>
      </trkpt>
      <trkpt lat="50.58024" lon="3.3626">
        <ele>39.1</ele>
        <time>2017-10-12T08:45:10Z</time>
      </trkpt>
      <trkpt lat="50.58032" lon="3.36291">
        <ele>39.1</ele>
        <time>2017-10-12T08:45:17Z</time>
      </trkpt>
      <trkpt lat="50.58039" lon="3.3632">
        <ele>38.9</ele>
        <time>2017-10-12T08:45:24Z</time>
      </trkpt>
      <trkpt lat="50.58046" lon="3.36346">
        <ele>38.2</ele>
        <time>2017-10-12T08:45:36Z</time>
      </trkpt>
      <trkpt lat="50.58051" lon="3.36361">
        <ele>38.1</ele>
        <time>2017-10-12T08:45:44Z</time>
      </trkpt>
      <trkpt lat="50.58051" lon="3.36364">
        <ele>38.1</ele>
        <time>2017-10-12T08:45:46Z</time>
      </trkpt>
      <trkpt lat="50.58053" lon="3.36369">
        <ele>38</ele>
        <time>2017-10-12T08:45:49Z</time>
      </trkpt>
      <trkpt lat="50.5806" lon="3.36393">
        <ele>37.8</ele>
        <time>2017-10-12T08:46:05Z</time>
      </trkpt>
      <trkpt lat="50.58068" lon="3.36419">
        <ele>37.8</ele>
        <time>2017-10-12T08:46:19Z</time>
      </trkpt>
      <trkpt lat="50.58075" lon="3.36446">
        <ele>37.8</ele>
        <time>2017-10-12T08:46:35Z</time>
      </trkpt>
      <trkpt lat="50.58082" lon="3.36476">
        <ele>37.8</ele>
        <time>2017-10-12T08:46:45Z</time>
      </trkpt>
      <trkpt lat="50.58088" lon="3.36503">
        <ele>37.9</ele>
        <time>2017-10-12T08:46:51Z</time>
      </trkpt>
      <trkpt lat="50.58093" lon="3.3653">
        <ele>37.9</ele>
        <time>2017-10-12T08:46:57Z</time>
      </trkpt>
      <trkpt lat="50.58102" lon="3.36556">
        <ele>37.9</ele>
        <time>2017-10-12T08:47:03Z</time>
      </trkpt>
      <trkpt lat="50.58112" lon="3.36581">
        <ele>37.7</ele>
        <time>2017-10-12T08:47:09Z</time>
      </trkpt>
      <trkpt lat="50.5812" lon="3.36611">
        <ele>36.9</ele>
        <time>2017-10-12T08:47:16Z</time>
      </trkpt>
      <trkpt lat="50.5813" lon="3.3664">
        <ele>36.6</ele>
        <time>2017-10-12T08:47:23Z</time>
      </trkpt>
      <trkpt lat="50.58138" lon="3.36668">
        <ele>36.6</ele>
        <time>2017-10-12T08:47:30Z</time>
      </trkpt>
      <trkpt lat="50.58148" lon="3.36694">
        <ele>36.7</ele>
        <time>2017-10-12T08:47:37Z</time>
      </trkpt>
      <trkpt lat="50.58155" lon="3.3672">
        <ele>36.8</ele>
        <time>2017-10-12T08:47:43Z</time>
      </trkpt>
      <trkpt lat="50.58162" lon="3.3675">
        <ele>36.9</ele>
        <time>2017-10-12T08:47:50Z</time>
      </trkpt>
      <trkpt lat="50.58175" lon="3.36773">
        <ele>37</ele>
        <time>2017-10-12T08:47:58Z</time>
      </trkpt>
      <trkpt lat="50.58187" lon="3.36795">
        <ele>36.8</ele>
        <time>2017-10-12T08:48:04Z</time>
      </trkpt>
      <trkpt lat="50.58198" lon="3.36823">
        <ele>36.6</ele>
        <time>2017-10-12T08:48:11Z</time>
      </trkpt>
      <trkpt lat="50.58209" lon="3.36851">
        <ele>36.4</ele>
        <time>2017-10-12T08:48:18Z</time>
      </trkpt>
      <trkpt lat="50.58219" lon="3.36878">
        <ele>36.3</ele>
        <time>2017-10-12T08:48:25Z</time>
      </trkpt>
      <trkpt lat="50.5823" lon="3.36905">
        <ele>36.1</ele>
        <time>2017-10-12T08:48:32Z</time>
      </trkpt>
      <trkpt lat="50.58241" lon="3.3693">
        <ele>35.9</ele>
        <time>2017-10-12T08:48:39Z</time>
      </trkpt>
      <trkpt lat="50.58251" lon="3.36956">
        <ele>35.7</ele>
        <time>2017-10-12T08:48:46Z</time>
      </trkpt>
      <trkpt lat="50.58261" lon="3.36982">
        <ele>35.5</ele>
        <time>2017-10-12T08:48:53Z</time>
      </trkpt>
      <trkpt lat="50.58272" lon="3.37008">
        <ele>35.1</ele>
        <time>2017-10-12T08:49:00Z</time>
      </trkpt>
      <trkpt lat="50.58283" lon="3.37031">
        <ele>34.8</ele>
        <time>2017-10-12T08:49:06Z</time>
      </trkpt>
      <trkpt lat="50.58294" lon="3.37056">
        <ele>34.5</ele>
        <time>2017-10-12T08:49:13Z</time>
      </trkpt>
      <trkpt lat="50.58303" lon="3.37083">
        <ele>34.1</ele>
        <time>2017-10-12T08:49:21Z</time>
      </trkpt>
      <trkpt lat="50.58314" lon="3.37107">
        <ele>33.9</ele>
        <time>2017-10-12T08:49:28Z</time>
      </trkpt>
      <trkpt lat="50.58324" lon="3.37132">
        <ele>33.7</ele>
        <time>2017-10-12T08:49:35Z</time>
      </trkpt>
      <trkpt lat="50.58334" lon="3.37157">
        <ele>33.5</ele>
        <time>2017-10-12T08:49:42Z</time>
      </trkpt>
      <trkpt lat="50.58343" lon="3.37182">
        <ele>33.4</ele>
        <time>2017-10-12T08:49:49Z</time>
      </trkpt>
      <trkpt lat="50.58354" lon="3.37205">
        <ele>33.3</ele>
        <time>2017-10-12T08:49:56Z</time>
      </trkpt>
      <trkpt lat="50.58365" lon="3.37231">
        <ele>33.4</ele>
        <time>2017-10-12T08:50:03Z</time>
      </trkpt>
      <trkpt lat="50.58374" lon="3.37257">
        <ele>33.3</ele>
        <time>2017-10-12T08:50:10Z</time>
      </trkpt>
      <trkpt lat="50.58386" lon="3.37283">
        <ele>33.2</ele>
        <time>2017-10-12T08:50:16Z</time>
      </trkpt>
      <trkpt lat="50.58396" lon="3.37306">
        <ele>33.1</ele>
        <time>2017-10-12T08:50:22Z</time>
      </trkpt>
      <trkpt lat="50.58402" lon="3.37322">
        <ele>33</ele>
        <time>2017-10-12T08:50:26Z</time>
      </trkpt>
      <trkpt lat="50.58414" lon="3.3735">
        <ele>32.7</ele>
        <time>2017-10-12T08:50:33Z</time>
      </trkpt>
      <trkpt lat="50.5843" lon="3.37368">
        <ele>32.5</ele>
        <time>2017-10-12T08:50:40Z</time>
      </trkpt>
      <trkpt lat="50.58445" lon="3.37384">
        <ele>32.1</ele>
        <time>2017-10-12T08:50:46Z</time>
      </trkpt>
      <trkpt lat="50.58458" lon="3.37406">
        <ele>31</ele>
        <time>2017-10-12T08:50:52Z</time>
      </trkpt>
      <trkpt lat="50.58472" lon="3.37429">
        <ele>30.9</ele>
        <time>2017-10-12T08:50:59Z</time>
      </trkpt>
      <trkpt lat="50.58485" lon="3.37452">
        <ele>30.9</ele>
        <time>2017-10-12T08:51:06Z</time>
      </trkpt>
      <trkpt lat="50.58502" lon="3.37468">
        <ele>31</ele>
        <time>2017-10-12T08:51:13Z</time>
      </trkpt>
      <trkpt lat="50.58519" lon="3.37478">
        <ele>31.8</ele>
        <time>2017-10-12T08:51:20Z</time>
      </trkpt>
      <trkpt lat="50.58536" lon="3.3749">
        <ele>32.7</ele>
        <time>2017-10-12T08:51:27Z</time>
      </trkpt>
      <trkpt lat="50.58553" lon="3.37501">
        <ele>34.6</ele>
        <time>2017-10-12T08:51:35Z</time>
      </trkpt>
      <trkpt lat="50.5857" lon="3.37514">
        <ele>36</ele>
        <time>2017-10-12T08:51:42Z</time>
      </trkpt>
      <trkpt lat="50.58587" lon="3.37531">
        <ele>37.5</ele>
        <time>2017-10-12T08:51:49Z</time>
      </trkpt>
      <trkpt lat="50.58605" lon="3.37544">
        <ele>38.1</ele>
        <time>2017-10-12T08:51:55Z</time>
      </trkpt>
      <trkpt lat="50.58622" lon="3.37557">
        <ele>38.3</ele>
        <time>2017-10-12T08:52:01Z</time>
      </trkpt>
      <trkpt lat="50.5864" lon="3.3757">
        <ele>38.3</ele>
        <time>2017-10-12T08:52:08Z</time>
      </trkpt>
      <trkpt lat="50.58658" lon="3.37586">
        <ele>38.5</ele>
        <time>2017-10-12T08:52:15Z</time>
      </trkpt>
      <trkpt lat="50.58676" lon="3.376">
        <ele>39.2</ele>
        <time>2017-10-12T08:52:21Z</time>
      </trkpt>
      <trkpt lat="50.58693" lon="3.37615">
        <ele>39.5</ele>
        <time>2017-10-12T08:52:27Z</time>
      </trkpt>
      <trkpt lat="50.5871" lon="3.37634">
        <ele>39.5</ele>
        <time>2017-10-12T08:52:34Z</time>
      </trkpt>
      <trkpt lat="50.58727" lon="3.37653">
        <ele>39.5</ele>
        <time>2017-10-12T08:52:41Z</time>
      </trkpt>
      <trkpt lat="50.58744" lon="3.37671">
        <ele>39.8</ele>
        <time>2017-10-12T08:52:48Z</time>
      </trkpt>
      <trkpt lat="50.5876" lon="3.37685">
        <ele>40.2</ele>
        <time>2017-10-12T08:52:54Z</time>
      </trkpt>
      <trkpt lat="50.58777" lon="3.377">
        <ele>39.9</ele>
        <time>2017-10-12T08:53:00Z</time>
      </trkpt>
      <trkpt lat="50.58792" lon="3.37716">
        <ele>38.8</ele>
        <time>2017-10-12T08:53:06Z</time>
      </trkpt>
      <trkpt lat="50.58808" lon="3.37731">
        <ele>38.4</ele>
        <time>2017-10-12T08:53:12Z</time>
      </trkpt>
      <trkpt lat="50.58825" lon="3.37749">
        <ele>39.3</ele>
        <time>2017-10-12T08:53:19Z</time>
      </trkpt>
      <trkpt lat="50.58841" lon="3.37762">
        <ele>40.7</ele>
        <time>2017-10-12T08:53:25Z</time>
      </trkpt>
      <trkpt lat="50.58858" lon="3.3778">
        <ele>42</ele>
        <time>2017-10-12T08:53:32Z</time>
      </trkpt>
      <trkpt lat="50.58875" lon="3.37799">
        <ele>42.3</ele>
        <time>2017-10-12T08:53:39Z</time>
      </trkpt>
      <trkpt lat="50.58891" lon="3.37813">
        <ele>42.7</ele>
        <time>2017-10-12T08:53:45Z</time>
      </trkpt>
      <trkpt lat="50.58909" lon="3.3783">
        <ele>43</ele>
        <time>2017-10-12T08:53:52Z</time>
      </trkpt>
      <trkpt lat="50.58925" lon="3.37847">
        <ele>41.7</ele>
        <time>2017-10-12T08:53:59Z</time>
      </trkpt>
      <trkpt lat="50.58941" lon="3.37865">
        <ele>40.5</ele>
        <time>2017-10-12T08:54:06Z</time>
      </trkpt>
      <trkpt lat="50.58957" lon="3.37881">
        <ele>39.9</ele>
        <time>2017-10-12T08:54:13Z</time>
      </trkpt>
      <trkpt lat="50.58973" lon="3.37898">
        <ele>40</ele>
        <time>2017-10-12T08:54:20Z</time>
      </trkpt>
      <trkpt lat="50.58989" lon="3.37915">
        <ele>40.3</ele>
        <time>2017-10-12T08:54:27Z</time>
      </trkpt>
      <trkpt lat="50.59006" lon="3.37931">
        <ele>41.2</ele>
        <time>2017-10-12T08:54:34Z</time>
      </trkpt>
      <trkpt lat="50.59023" lon="3.37947">
        <ele>41.7</ele>
        <time>2017-10-12T08:54:41Z</time>
      </trkpt>
      <trkpt lat="50.59041" lon="3.37965">
        <ele>41.7</ele>
        <time>2017-10-12T08:54:48Z</time>
      </trkpt>
      <trkpt lat="50.59058" lon="3.37981">
        <ele>41.9</ele>
        <time>2017-10-12T08:54:55Z</time>
      </trkpt>
      <trkpt lat="50.59075" lon="3.38">
        <ele>42.1</ele>
        <time>2017-10-12T08:55:02Z</time>
      </trkpt>
      <trkpt lat="50.59092" lon="3.38018">
        <ele>42.3</ele>
        <time>2017-10-12T08:55:09Z</time>
      </trkpt>
      <trkpt lat="50.59109" lon="3.38034">
        <ele>42.5</ele>
        <time>2017-10-12T08:55:16Z</time>
      </trkpt>
      <trkpt lat="50.59126" lon="3.38049">
        <ele>42.7</ele>
        <time>2017-10-12T08:55:22Z</time>
      </trkpt>
      <trkpt lat="50.59141" lon="3.38069">
        <ele>42.8</ele>
        <time>2017-10-12T08:55:29Z</time>
      </trkpt>
      <trkpt lat="50.59154" lon="3.38084">
        <ele>42.5</ele>
        <time>2017-10-12T08:55:35Z</time>
      </trkpt>
      <trkpt lat="50.5917" lon="3.381">
        <ele>42.1</ele>
        <time>2017-10-12T08:55:41Z</time>
      </trkpt>
      <trkpt lat="50.59184" lon="3.38116">
        <ele>41.3</ele>
        <time>2017-10-12T08:55:47Z</time>
      </trkpt>
      <trkpt lat="50.59201" lon="3.38135">
        <ele>41.4</ele>
        <time>2017-10-12T08:55:54Z</time>
      </trkpt>
      <trkpt lat="50.59216" lon="3.3815">
        <ele>41.8</ele>
        <time>2017-10-12T08:56:00Z</time>
      </trkpt>
      <trkpt lat="50.59235" lon="3.38168">
        <ele>42</ele>
        <time>2017-10-12T08:56:07Z</time>
      </trkpt>
      <trkpt lat="50.59253" lon="3.38184">
        <ele>42.8</ele>
        <time>2017-10-12T08:56:14Z</time>
      </trkpt>
      <trkpt lat="50.5927" lon="3.38197">
        <ele>42.6</ele>
        <time>2017-10-12T08:56:20Z</time>
      </trkpt>
      <trkpt lat="50.59288" lon="3.38209">
        <ele>42.1</ele>
        <time>2017-10-12T08:56:26Z</time>
      </trkpt>
      <trkpt lat="50.59306" lon="3.38223">
        <ele>41.2</ele>
        <time>2017-10-12T08:56:33Z</time>
      </trkpt>
      <trkpt lat="50.59325" lon="3.38235">
        <ele>40.7</ele>
        <time>2017-10-12T08:56:40Z</time>
      </trkpt>
      <trkpt lat="50.59343" lon="3.38248">
        <ele>40.2</ele>
        <time>2017-10-12T08:56:47Z</time>
      </trkpt>
      <trkpt lat="50.59362" lon="3.38262">
        <ele>40</ele>
        <time>2017-10-12T08:56:54Z</time>
      </trkpt>
      <trkpt lat="50.59378" lon="3.38273">
        <ele>40</ele>
        <time>2017-10-12T08:57:00Z</time>
      </trkpt>
      <trkpt lat="50.59397" lon="3.38288">
        <ele>39.3</ele>
        <time>2017-10-12T08:57:07Z</time>
      </trkpt>
      <trkpt lat="50.59415" lon="3.38298">
        <ele>39.2</ele>
        <time>2017-10-12T08:57:13Z</time>
      </trkpt>
      <trkpt lat="50.59432" lon="3.38313">
        <ele>39.5</ele>
        <time>2017-10-12T08:57:20Z</time>
      </trkpt>
      <trkpt lat="50.5945" lon="3.38327">
        <ele>40</ele>
        <time>2017-10-12T08:57:27Z</time>
      </trkpt>
      <trkpt lat="50.59468" lon="3.38337">
        <ele>40.6</ele>
        <time>2017-10-12T08:57:34Z</time>
      </trkpt>
      <trkpt lat="50.59487" lon="3.38344">
        <ele>41.1</ele>
        <time>2017-10-12T08:57:41Z</time>
      </trkpt>
      <trkpt lat="50.59506" lon="3.38349">
        <ele>41.9</ele>
        <time>2017-10-12T08:57:48Z</time>
      </trkpt>
      <trkpt lat="50.59526" lon="3.38352">
        <ele>42.3</ele>
        <time>2017-10-12T08:57:55Z</time>
      </trkpt>
      <trkpt lat="50.59545" lon="3.38358">
        <ele>42.9</ele>
        <time>2017-10-12T08:58:02Z</time>
      </trkpt>
      <trkpt lat="50.59562" lon="3.38363">
        <ele>43.6</ele>
        <time>2017-10-12T08:58:08Z</time>
      </trkpt>
      <trkpt lat="50.59581" lon="3.38371">
        <ele>44.2</ele>
        <time>2017-10-12T08:58:15Z</time>
      </trkpt>
      <trkpt lat="50.59599" lon="3.38382">
        <ele>45</ele>
        <time>2017-10-12T08:58:21Z</time>
      </trkpt>
      <trkpt lat="50.59615" lon="3.38396">
        <ele>45</ele>
        <time>2017-10-12T08:58:27Z</time>
      </trkpt>
      <trkpt lat="50.59632" lon="3.3841">
        <ele>45</ele>
        <time>2017-10-12T08:58:33Z</time>
      </trkpt>
      <trkpt lat="50.5965" lon="3.38426">
        <ele>45.2</ele>
        <time>2017-10-12T08:58:40Z</time>
      </trkpt>
      <trkpt lat="50.59668" lon="3.38442">
        <ele>45.4</ele>
        <time>2017-10-12T08:58:47Z</time>
      </trkpt>
      <trkpt lat="50.59685" lon="3.38457">
        <ele>45.7</ele>
        <time>2017-10-12T08:58:54Z</time>
      </trkpt>
      <trkpt lat="50.59691" lon="3.3847">
        <ele>45.9</ele>
        <time>2017-10-12T08:58:58Z</time>
      </trkpt>
      <trkpt lat="50.59684" lon="3.38498">
        <ele>45.8</ele>
        <time>2017-10-12T08:59:05Z</time>
      </trkpt>
      <trkpt lat="50.59676" lon="3.38527">
        <ele>45.8</ele>
        <time>2017-10-12T08:59:11Z</time>
      </trkpt>
      <trkpt lat="50.59667" lon="3.38556">
        <ele>45.4</ele>
        <time>2017-10-12T08:59:18Z</time>
      </trkpt>
      <trkpt lat="50.59658" lon="3.38581">
        <ele>45.1</ele>
        <time>2017-10-12T08:59:24Z</time>
      </trkpt>
      <trkpt lat="50.59654" lon="3.38613">
        <ele>44.6</ele>
        <time>2017-10-12T08:59:31Z</time>
      </trkpt>
      <trkpt lat="50.59655" lon="3.38643">
        <ele>44</ele>
        <time>2017-10-12T08:59:37Z</time>
      </trkpt>
      <trkpt lat="50.59654" lon="3.38672">
        <ele>44.3</ele>
        <time>2017-10-12T08:59:43Z</time>
      </trkpt>
      <trkpt lat="50.59653" lon="3.38703">
        <ele>44.2</ele>
        <time>2017-10-12T08:59:49Z</time>
      </trkpt>
      <trkpt lat="50.59652" lon="3.38736">
        <ele>43.9</ele>
        <time>2017-10-12T08:59:56Z</time>
      </trkpt>
      <trkpt lat="50.5965" lon="3.38767">
        <ele>42.7</ele>
        <time>2017-10-12T09:00:03Z</time>
      </trkpt>
      <trkpt lat="50.59651" lon="3.38796">
        <ele>43</ele>
        <time>2017-10-12T09:00:10Z</time>
      </trkpt>
      <trkpt lat="50.59651" lon="3.38827">
        <ele>43.2</ele>
        <time>2017-10-12T09:00:17Z</time>
      </trkpt>
      <trkpt lat="50.59654" lon="3.38859">
        <ele>43.1</ele>
        <time>2017-10-12T09:00:24Z</time>
      </trkpt>
      <trkpt lat="50.59657" lon="3.38887">
        <ele>43</ele>
        <time>2017-10-12T09:00:30Z</time>
      </trkpt>
      <trkpt lat="50.59659" lon="3.38915">
        <ele>43.5</ele>
        <time>2017-10-12T09:00:36Z</time>
      </trkpt>
      <trkpt lat="50.5966" lon="3.38924">
        <ele>43.7</ele>
        <time>2017-10-12T09:00:38Z</time>
      </trkpt>
      <trkpt lat="50.59662" lon="3.38953">
        <ele>44</ele>
        <time>2017-10-12T09:00:44Z</time>
      </trkpt>
      <trkpt lat="50.59666" lon="3.38985">
        <ele>45.4</ele>
        <time>2017-10-12T09:00:51Z</time>
      </trkpt>
      <trkpt lat="50.59668" lon="3.39018">
        <ele>46.2</ele>
        <time>2017-10-12T09:00:58Z</time>
      </trkpt>
      <trkpt lat="50.5967" lon="3.3905">
        <ele>47.2</ele>
        <time>2017-10-12T09:01:05Z</time>
      </trkpt>
      <trkpt lat="50.59672" lon="3.39084">
        <ele>47.3</ele>
        <time>2017-10-12T09:01:12Z</time>
      </trkpt>
      <trkpt lat="50.59673" lon="3.39116">
        <ele>47.2</ele>
        <time>2017-10-12T09:01:19Z</time>
      </trkpt>
      <trkpt lat="50.59673" lon="3.39145">
        <ele>47.4</ele>
        <time>2017-10-12T09:01:25Z</time>
      </trkpt>
      <trkpt lat="50.59675" lon="3.3917">
        <ele>47.9</ele>
        <time>2017-10-12T09:01:31Z</time>
      </trkpt>
      <trkpt lat="50.59692" lon="3.3917">
        <ele>47.6</ele>
        <time>2017-10-12T09:01:39Z</time>
      </trkpt>
      <trkpt lat="50.597" lon="3.39157">
        <ele>47.7</ele>
        <time>2017-10-12T09:01:43Z</time>
      </trkpt>
      <trkpt lat="50.59709" lon="3.39129">
        <ele>48.3</ele>
        <time>2017-10-12T09:01:51Z</time>
      </trkpt>
      <trkpt lat="50.59718" lon="3.39103">
        <ele>48.2</ele>
        <time>2017-10-12T09:01:58Z</time>
      </trkpt>
      <trkpt lat="50.59729" lon="3.39086">
        <ele>48</ele>
        <time>2017-10-12T09:02:04Z</time>
      </trkpt>
      <trkpt lat="50.59749" lon="3.39087">
        <ele>49.1</ele>
        <time>2017-10-12T09:02:11Z</time>
      </trkpt>
      <trkpt lat="50.59752" lon="3.39088">
        <ele>49.3</ele>
        <time>2017-10-12T09:02:12Z</time>
      </trkpt>
      <trkpt lat="50.59771" lon="3.39093">
        <ele>49.7</ele>
        <time>2017-10-12T09:02:19Z</time>
      </trkpt>
      <trkpt lat="50.59789" lon="3.39099">
        <ele>49.4</ele>
        <time>2017-10-12T09:02:25Z</time>
      </trkpt>
      <trkpt lat="50.59809" lon="3.39105">
        <ele>49.1</ele>
        <time>2017-10-12T09:02:32Z</time>
      </trkpt>
      <trkpt lat="50.59827" lon="3.3911">
        <ele>48.7</ele>
        <time>2017-10-12T09:02:38Z</time>
      </trkpt>
      <trkpt lat="50.59847" lon="3.39116">
        <ele>48.2</ele>
        <time>2017-10-12T09:02:45Z</time>
      </trkpt>
      <trkpt lat="50.59866" lon="3.39121">
        <ele>47.6</ele>
        <time>2017-10-12T09:02:51Z</time>
      </trkpt>
      <trkpt lat="50.59884" lon="3.39125">
        <ele>46.9</ele>
        <time>2017-10-12T09:02:57Z</time>
      </trkpt>
      <trkpt lat="50.59901" lon="3.39131">
        <ele>46.2</ele>
        <time>2017-10-12T09:03:03Z</time>
      </trkpt>
      <trkpt lat="50.59919" lon="3.39134">
        <ele>45.9</ele>
        <time>2017-10-12T09:03:10Z</time>
      </trkpt>
      <trkpt lat="50.59924" lon="3.39164">
        <ele>46.8</ele>
        <time>2017-10-12T09:03:16Z</time>
      </trkpt>
      <trkpt lat="50.59926" lon="3.39196">
        <ele>48</ele>
        <time>2017-10-12T09:03:22Z</time>
      </trkpt>
      <trkpt lat="50.59929" lon="3.39225">
        <ele>48.7</ele>
        <time>2017-10-12T09:03:28Z</time>
      </trkpt>
      <trkpt lat="50.5993" lon="3.39253">
        <ele>49</ele>
        <time>2017-10-12T09:03:36Z</time>
      </trkpt>
      <trkpt lat="50.59914" lon="3.39299">
        <ele>49.4</ele>
        <time>2017-10-12T09:04:13Z</time>
      </trkpt>
      <trkpt lat="50.59916" lon="3.39331">
        <ele>48.2</ele>
        <time>2017-10-12T09:04:20Z</time>
      </trkpt>
      <trkpt lat="50.59912" lon="3.39337">
        <ele>48.2</ele>
        <time>2017-10-12T09:04:22Z</time>
      </trkpt>
      <trkpt lat="50.59899" lon="3.39355">
        <ele>48.6</ele>
        <time>2017-10-12T09:04:29Z</time>
      </trkpt>
      <trkpt lat="50.59891" lon="3.39377">
        <ele>49.1</ele>
        <time>2017-10-12T09:04:35Z</time>
      </trkpt>
      <trkpt lat="50.59873" lon="3.3939">
        <ele>49.5</ele>
        <time>2017-10-12T09:04:42Z</time>
      </trkpt>
      <trkpt lat="50.59856" lon="3.39405">
        <ele>49</ele>
        <time>2017-10-12T09:04:49Z</time>
      </trkpt>
      <trkpt lat="50.59837" lon="3.39415">
        <ele>48.3</ele>
        <time>2017-10-12T09:04:55Z</time>
      </trkpt>
      <trkpt lat="50.59819" lon="3.3943">
        <ele>47.9</ele>
        <time>2017-10-12T09:05:01Z</time>
      </trkpt>
      <trkpt lat="50.59802" lon="3.39432">
        <ele>47.5</ele>
        <time>2017-10-12T09:05:07Z</time>
      </trkpt>
      <trkpt lat="50.59786" lon="3.3941">
        <ele>48.2</ele>
        <time>2017-10-12T09:05:14Z</time>
      </trkpt>
      <trkpt lat="50.59772" lon="3.39387">
        <ele>48.2</ele>
        <time>2017-10-12T09:05:21Z</time>
      </trkpt>
      <trkpt lat="50.59765" lon="3.39374">
        <ele>47.8</ele>
        <time>2017-10-12T09:05:25Z</time>
      </trkpt>
    </trkseg>
  </trk>
</gpx>